NCAR-RAP Real-Time Weather Data

Output produced by METARs form (30 April 2017  15:06 UTC)
found at http://weather.rap.ucar.edu/surface/
 
Conditions at: KBOW observed 30 April 2017  14:47 UTC
Temperature: 26.0°C (79°F)
Dewpoint: 20.0°C (68°F) [RH = 70%]
Pressure (altimeter): 30.12 inches Hg (1020.1 mb)
Winds: from the SE (140 degrees) at 14 MPH (12 knots; 6.2 m/s)
gusting to 22 MPH (19 knots; 9.9 m/s)
Visibility: 10 or more miles (16+ km)
Ceiling: 2700 feet AGL
Clouds: broken clouds at 2700 feet AGL
Present Weather: no significant weather observed at this time
KBOW 301447Z 14012G19KT 10SM BKN027 26/20 A3012

Conditions at: KBOW observed 30 April 2017  13:47 UTC
Temperature: 25.0°C (77°F)
Dewpoint: 20.0°C (68°F) [RH = 74%]
Pressure (altimeter): 30.12 inches Hg (1020.1 mb)
Winds: from the SE (130 degrees) at 14 MPH (12 knots; 6.2 m/s)
gusting to 22 MPH (19 knots; 9.9 m/s)
Visibility: 10 or more miles (16+ km)
Ceiling: 6500 feet AGL
Clouds: scattered clouds at 1500 feet AGL
broken clouds at 6500 feet AGL
Present Weather: no significant weather observed at this time
KBOW 301347Z 13012G19KT 10SM SCT015 BKN065 25/20 A3012

Conditions at: KBOW observed 30 April 2017  12:45 UTC
Temperature: 23.0°C (73°F)
Dewpoint: 21.0°C (70°F) [RH = 89%]
Pressure (altimeter): 30.13 inches Hg (1020.4 mb)
Winds: from the ESE (120 degrees) at 10 MPH (9 knots; 4.7 m/s)
Visibility: 7 miles (11 km)
Ceiling: 6500 feet AGL
Clouds: broken clouds at 6500 feet AGL
Present Weather: no significant weather observed at this time
KBOW 301245Z 12009KT 7SM BKN065 23/21 A3013

Conditions at: KBOW observed 30 April 2017  11:47 UTC
Temperature: 21.0°C (70°F)
Dewpoint: 21.0°C (70°F) [RH = 100%]
Pressure (altimeter): 30.14 inches Hg (1020.7 mb)
Winds: from the ESE (110 degrees) at 7 MPH (6 knots; 3.1 m/s)
Visibility: 7 miles (11 km)
Ceiling: 6500 feet AGL
Clouds: broken clouds at 6500 feet AGL
Present Weather: no significant weather observed at this time
KBOW 301147Z 11006KT 7SM BKN065 21/21 A3014

Conditions at: KBOW observed 30 April 2017  11:30 UTC
Temperature: 21.0°C (70°F)
Dewpoint: 21.0°C (70°F) [RH = 100%]
Pressure (altimeter): 30.13 inches Hg (1020.4 mb)
Winds: from the E (100 degrees) at 6 MPH (5 knots; 2.6 m/s)
Visibility: 7 miles (11 km)
Ceiling: 6500 feet AGL
Clouds: broken clouds at 6500 feet AGL
Present Weather: no significant weather observed at this time
KBOW 301130Z 10005KT 7SM BKN065 21/21 A3013

Conditions at: KBOW observed 30 April 2017  11:15 UTC
Temperature: 21.0°C (70°F)
Dewpoint: 21.0°C (70°F) [RH = 100%]
Pressure (altimeter): 30.13 inches Hg (1020.4 mb)
Winds: from the E (100 degrees) at 6 MPH (5 knots; 2.6 m/s)
Visibility: 8 miles (13 km)
Ceiling: at least 12,000 feet AGL
Clouds: sky clear below 12,000 feet AGL
Present Weather: automated observation with no human augmentation;
there may or may not be significant weather present at this time
KBOW 301115Z AUTO 10005KT 8SM CLR 21/21 A3013 RMK AO2 FZRANO

Conditions at: KBOW observed 30 April 2017  10:55 UTC
Temperature: 21.0°C (70°F)
Dewpoint: 21.0°C (70°F) [RH = 100%]
Pressure (altimeter): 30.13 inches Hg (1020.4 mb)
Winds: from the E (100 degrees) at 6 MPH (5 knots; 2.6 m/s)
Visibility: 10 or more miles (16+ km)
Ceiling: at least 12,000 feet AGL
Clouds: scattered clouds at 7000 feet AGL
Present Weather: automated observation with no human augmentation;
there may or may not be significant weather present at this time
KBOW 301055Z AUTO 10005KT 10SM SCT070 21/21 A3013 RMK AO2 FZRANO

Conditions at: KBOW observed 30 April 2017  10:35 UTC
Temperature: 21.0°C (70°F)
Dewpoint: 21.0°C (70°F) [RH = 100%]
Pressure (altimeter): 30.12 inches Hg (1020.1 mb)
Winds: from the E (100 degrees) at 6 MPH (5 knots; 2.6 m/s)
Visibility: 10 or more miles (16+ km)
Ceiling: 7000 feet AGL
Clouds: overcast cloud deck at 7000 feet AGL
Present Weather: automated observation with no human augmentation;
there may or may not be significant weather present at this time
KBOW 301035Z AUTO 10005KT 10SM OVC070 21/21 A3012 RMK AO2 FZRANO

Conditions at: KBOW observed 30 April 2017  10:15 UTC
Temperature: 21.0°C (70°F)
Dewpoint: 21.0°C (70°F) [RH = 100%]
Pressure (altimeter): 30.12 inches Hg (1020.1 mb)
Winds: from the E (90 degrees) at 5 MPH (4 knots; 2.1 m/s)
Visibility: 10 or more miles (16+ km)
Ceiling: 7000 feet AGL
Clouds: broken clouds at 7000 feet AGL
Present Weather: automated observation with no human augmentation;
there may or may not be significant weather present at this time
KBOW 301015Z AUTO 09004KT 10SM BKN070 21/21 A3012 RMK AO2 FZRANO

Conditions at: KBOW observed 30 April 2017  09:55 UTC
Temperature: 21.0°C (70°F)
Dewpoint: 21.0°C (70°F) [RH = 100%]
Pressure (altimeter): 30.11 inches Hg (1019.7 mb)
Winds: from the ESE (110 degrees) at 7 MPH (6 knots; 3.1 m/s)
Visibility: 10 or more miles (16+ km)
Ceiling: at least 12,000 feet AGL
Clouds: scattered clouds at 7000 feet AGL
Present Weather: automated observation with no human augmentation;
there may or may not be significant weather present at this time
KBOW 300955Z AUTO 11006KT 10SM SCT070 21/21 A3011 RMK AO2 FZRANO

Conditions at: KBOW observed 30 April 2017  09:35 UTC
Temperature: 21.0°C (70°F)
Dewpoint: 21.0°C (70°F) [RH = 100%]
Pressure (altimeter): 30.11 inches Hg (1019.7 mb)
Winds: from the ESE (120 degrees) at 6 MPH (5 knots; 2.6 m/s)
Visibility: 10 or more miles (16+ km)
Ceiling: at least 12,000 feet AGL
Clouds: sky clear below 12,000 feet AGL
Present Weather: automated observation with no human augmentation;
there may or may not be significant weather present at this time
KBOW 300935Z AUTO 12005KT 10SM CLR 21/21 A3011 RMK AO2 FZRANO

Conditions at: KBOW observed 30 April 2017  09:15 UTC
Temperature: 21.0°C (70°F)
Dewpoint: 21.0°C (70°F) [RH = 100%]
Pressure (altimeter): 30.10 inches Hg (1019.4 mb)
Winds: from the ESE (110 degrees) at 9 MPH (8 knots; 4.2 m/s)
Visibility: 10 or more miles (16+ km)
Ceiling: at least 12,000 feet AGL
Clouds: sky clear below 12,000 feet AGL
Present Weather: automated observation with no human augmentation;
there may or may not be significant weather present at this time
KBOW 300915Z AUTO 11008KT 10SM CLR 21/21 A3010 RMK AO2 FZRANO

Conditions at: KBOW observed 30 April 2017  08:55 UTC
Temperature: 21.0°C (70°F)
Dewpoint: 21.0°C (70°F) [RH = 100%]
Pressure (altimeter): 30.10 inches Hg (1019.4 mb)
Winds: from the E (100 degrees) at 8 MPH (7 knots; 3.6 m/s)
Visibility: 10 or more miles (16+ km)
Ceiling: at least 12,000 feet AGL
Clouds: sky clear below 12,000 feet AGL
Present Weather: automated observation with no human augmentation;
there may or may not be significant weather present at this time
KBOW 300855Z AUTO 10007KT 10SM CLR 21/21 A3010 RMK AO2 FZRANO

Conditions at: KBOW observed 30 April 2017  08:35 UTC
Temperature: 21.0°C (70°F)
Dewpoint: 21.0°C (70°F) [RH = 100%]
Pressure (altimeter): 30.10 inches Hg (1019.4 mb)
Winds: from the ESE (110 degrees) at 7 MPH (6 knots; 3.1 m/s)
Visibility: 10 or more miles (16+ km)
Ceiling: at least 12,000 feet AGL
Clouds: sky clear below 12,000 feet AGL
Present Weather: automated observation with no human augmentation;
there may or may not be significant weather present at this time
KBOW 300835Z AUTO 11006KT 10SM CLR 21/21 A3010 RMK AO2 FZRANO

Conditions at: KBOW observed 30 April 2017  08:15 UTC
Temperature: 21.0°C (70°F)
Dewpoint: 21.0°C (70°F) [RH = 100%]
Pressure (altimeter): 30.10 inches Hg (1019.4 mb)
Winds: from the ESE (110 degrees) at 8 MPH (7 knots; 3.6 m/s)
Visibility: 10 or more miles (16+ km)
Ceiling: at least 12,000 feet AGL
Clouds: sky clear below 12,000 feet AGL
Present Weather: automated observation with no human augmentation;
there may or may not be significant weather present at this time
KBOW 300815Z AUTO 11007KT 10SM CLR 21/21 A3010 RMK AO2 FZRANO

Conditions at: KBOW observed 30 April 2017  07:55 UTC
Temperature: 21.0°C (70°F)
Dewpoint: 21.0°C (70°F) [RH = 100%]
Pressure (altimeter): 30.09 inches Hg (1019.0 mb)
Winds: from the ESE (110 degrees) at 7 MPH (6 knots; 3.1 m/s)
Visibility: 10 or more miles (16+ km)
Ceiling: at least 12,000 feet AGL
Clouds: sky clear below 12,000 feet AGL
Present Weather: automated observation with no human augmentation;
there may or may not be significant weather present at this time
KBOW 300755Z AUTO 11006KT 10SM CLR 21/21 A3009 RMK AO2 FZRANO

Conditions at: KBOW observed 30 April 2017  07:35 UTC
Temperature: 21.0°C (70°F)
Dewpoint: 21.0°C (70°F) [RH = 100%]
Pressure (altimeter): 30.09 inches Hg (1019.0 mb)
Winds: from the ESE (110 degrees) at 8 MPH (7 knots; 3.6 m/s)
Visibility: 10 or more miles (16+ km)
Ceiling: at least 12,000 feet AGL
Clouds: sky clear below 12,000 feet AGL
Present Weather: automated observation with no human augmentation;
there may or may not be significant weather present at this time
KBOW 300735Z AUTO 11007KT 10SM CLR 21/21 A3009 RMK AO2 FZRANO

Conditions at: KBOW observed 30 April 2017  07:15 UTC
Temperature: 21.0°C (70°F)
Dewpoint: 21.0°C (70°F) [RH = 100%]
Pressure (altimeter): 30.10 inches Hg (1019.4 mb)
Winds: from the ESE (120 degrees) at 9 MPH (8 knots; 4.2 m/s)
Visibility: 10 or more miles (16+ km)
Ceiling: at least 12,000 feet AGL
Clouds: sky clear below 12,000 feet AGL
Present Weather: automated observation with no human augmentation;
there may or may not be significant weather present at this time
KBOW 300715Z AUTO 12008KT 10SM CLR 21/21 A3010 RMK AO2 FZRANO

Conditions at: KBOW observed 30 April 2017  06:55 UTC
Temperature: 21.0°C (70°F)
Dewpoint: 21.0°C (70°F) [RH = 100%]
Pressure (altimeter): 30.10 inches Hg (1019.4 mb)
Winds: from the ESE (120 degrees) at 8 MPH (7 knots; 3.6 m/s)
Visibility: 10 or more miles (16+ km)
Ceiling: at least 12,000 feet AGL
Clouds: sky clear below 12,000 feet AGL
Present Weather: automated observation with no human augmentation;
there may or may not be significant weather present at this time
KBOW 300655Z AUTO 12007KT 10SM CLR 21/21 A3010 RMK AO2 FZRANO

Conditions at: KBOW observed 30 April 2017  06:35 UTC
Temperature: 21.0°C (70°F)
Dewpoint: 22.0°C (72°F) [RH = 106%]
Pressure (altimeter): 30.10 inches Hg (1019.4 mb)
Winds: from the ESE (110 degrees) at 8 MPH (7 knots; 3.6 m/s)
Visibility: 10 or more miles (16+ km)
Ceiling: at least 12,000 feet AGL
Clouds: sky clear below 12,000 feet AGL
Present Weather: automated observation with no human augmentation;
there may or may not be significant weather present at this time
KBOW 300635Z AUTO 11007KT 10SM CLR 21/22 A3010 RMK AO2 FZRANO

Conditions at: KBOW observed 30 April 2017  06:15 UTC
Temperature: 22.0°C (72°F)
Dewpoint: 22.0°C (72°F) [RH = 100%]
Pressure (altimeter): 30.11 inches Hg (1019.7 mb)
Winds: from the ESE (110 degrees) at 9 MPH (8 knots; 4.2 m/s)
Visibility: 10 or more miles (16+ km)
Ceiling: at least 12,000 feet AGL
Clouds: sky clear below 12,000 feet AGL
Present Weather: automated observation with no human augmentation;
there may or may not be significant weather present at this time
KBOW 300615Z AUTO 11008KT 10SM CLR 22/22 A3011 RMK AO2 FZRANO

Conditions at: KBOW observed 30 April 2017  05:55 UTC
Temperature: 22.0°C (72°F)
Dewpoint: 22.0°C (72°F) [RH = 100%]
Pressure (altimeter): 30.12 inches Hg (1020.1 mb)
Winds: from the ESE (120 degrees) at 7 MPH (6 knots; 3.1 m/s)
Visibility: 10 or more miles (16+ km)
Ceiling: at least 12,000 feet AGL
Clouds: sky clear below 12,000 feet AGL
Present Weather: automated observation with no human augmentation;
there may or may not be significant weather present at this time
KBOW 300555Z AUTO 12006KT 10SM CLR 22/22 A3012 RMK AO2 FZRANO

Conditions at: KBOW observed 30 April 2017  05:35 UTC
Temperature: 22.0°C (72°F)
Dewpoint: 21.0°C (70°F) [RH = 94%]
Pressure (altimeter): 30.12 inches Hg (1020.1 mb)
Winds: from the ESE (110 degrees) at 8 MPH (7 knots; 3.6 m/s)
Visibility: 10 or more miles (16+ km)
Ceiling: at least 12,000 feet AGL
Clouds: sky clear below 12,000 feet AGL
Present Weather: automated observation with no human augmentation;
there may or may not be significant weather present at this time
KBOW 300535Z AUTO 11007KT 10SM CLR 22/21 A3012 RMK AO2 FZRANO

Conditions at: KBOW observed 30 April 2017  05:15 UTC
Temperature: 22.0°C (72°F)
Dewpoint: 21.0°C (70°F) [RH = 94%]
Pressure (altimeter): 30.12 inches Hg (1020.1 mb)
Winds: from the ESE (110 degrees) at 8 MPH (7 knots; 3.6 m/s)
Visibility: 10 or more miles (16+ km)
Ceiling: at least 12,000 feet AGL
Clouds: sky clear below 12,000 feet AGL
Present Weather: automated observation with no human augmentation;
there may or may not be significant weather present at this time
KBOW 300515Z AUTO 11007KT 10SM CLR 22/21 A3012 RMK AO2 FZRANO

Conditions at: KBOW observed 30 April 2017  04:55 UTC
Temperature: 22.0°C (72°F)
Dewpoint: 21.0°C (70°F) [RH = 94%]
Pressure (altimeter): 30.13 inches Hg (1020.4 mb)
Winds: from the ESE (110 degrees) at 9 MPH (8 knots; 4.2 m/s)
Visibility: 10 or more miles (16+ km)
Ceiling: at least 12,000 feet AGL
Clouds: sky clear below 12,000 feet AGL
Present Weather: automated observation with no human augmentation;
there may or may not be significant weather present at this time
KBOW 300455Z AUTO 11008KT 10SM CLR 22/21 A3013 RMK AO2 FZRANO

Conditions at: KBOW observed 30 April 2017  04:35 UTC
Temperature: 23.0°C (73°F)
Dewpoint: 21.0°C (70°F) [RH = 89%]
Pressure (altimeter): 30.13 inches Hg (1020.4 mb)
Winds: from the E (100 degrees) at 13 MPH (11 knots; 5.7 m/s)
Visibility: 10 or more miles (16+ km)
Ceiling: at least 12,000 feet AGL
Clouds: sky clear below 12,000 feet AGL
Present Weather: automated observation with no human augmentation;
there may or may not be significant weather present at this time
KBOW 300435Z AUTO 10011KT 10SM CLR 23/21 A3013 RMK AO2 FZRANO

Conditions at: KBOW observed 30 April 2017  04:15 UTC
Temperature: 22.0°C (72°F)
Dewpoint: 21.0°C (70°F) [RH = 94%]
Pressure (altimeter): 30.13 inches Hg (1020.4 mb)
Winds: from the E (100 degrees) at 10 MPH (9 knots; 4.7 m/s)
Visibility: 10 or more miles (16+ km)
Ceiling: at least 12,000 feet AGL
Clouds: sky clear below 12,000 feet AGL
Present Weather: automated observation with no human augmentation;
there may or may not be significant weather present at this time
KBOW 300415Z AUTO 10009KT 10SM CLR 22/21 A3013 RMK AO2 FZRANO

Conditions at: KBOW observed 30 April 2017  03:55 UTC
Temperature: 23.0°C (73°F)
Dewpoint: 20.0°C (68°F) [RH = 83%]
Pressure (altimeter): 30.13 inches Hg (1020.4 mb)
Winds: from the E (100 degrees) at 10 MPH (9 knots; 4.7 m/s)
Visibility: 10 or more miles (16+ km)
Ceiling: at least 12,000 feet AGL
Clouds: sky clear below 12,000 feet AGL
Present Weather: automated observation with no human augmentation;
there may or may not be significant weather present at this time
KBOW 300355Z AUTO 10009KT 10SM CLR 23/20 A3013 RMK AO2 FZRANO

Conditions at: KBOW observed 30 April 2017  03:35 UTC
Temperature: 23.0°C (73°F)
Dewpoint: 19.0°C (66°F) [RH = 78%]
Pressure (altimeter): 30.14 inches Hg (1020.7 mb)
Winds: from the E (100 degrees) at 12 MPH (10 knots; 5.2 m/s)
Visibility: 10 or more miles (16+ km)
Ceiling: at least 12,000 feet AGL
Clouds: sky clear below 12,000 feet AGL
Present Weather: automated observation with no human augmentation;
there may or may not be significant weather present at this time
KBOW 300335Z AUTO 10010KT 10SM CLR 23/19 A3014 RMK AO2 FZRANO

Conditions at: KBOW observed 30 April 2017  03:15 UTC
Temperature: 23.0°C (73°F)
Dewpoint: 19.0°C (66°F) [RH = 78%]
Pressure (altimeter): 30.14 inches Hg (1020.7 mb)
Winds: from the E (100 degrees) at 9 MPH (8 knots; 4.2 m/s)
Visibility: 10 or more miles (16+ km)
Ceiling: at least 12,000 feet AGL
Clouds: sky clear below 12,000 feet AGL
Present Weather: automated observation with no human augmentation;
there may or may not be significant weather present at this time
KBOW 300315Z AUTO 10008KT 10SM CLR 23/19 A3014 RMK AO2 FZRANO

Conditions at: KBOW observed 30 April 2017  02:55 UTC
Temperature: 24.0°C (75°F)
Dewpoint: 19.0°C (66°F) [RH = 74%]
Pressure (altimeter): 30.13 inches Hg (1020.4 mb)
Winds: from the E (90 degrees) at 10 MPH (9 knots; 4.7 m/s)
Visibility: 10 or more miles (16+ km)
Ceiling: at least 12,000 feet AGL
Clouds: sky clear below 12,000 feet AGL
Present Weather: automated observation with no human augmentation;
there may or may not be significant weather present at this time
KBOW 300255Z AUTO 09009KT 10SM CLR 24/19 A3013 RMK AO2 FZRANO

Conditions at: KBOW observed 30 April 2017  02:35 UTC
Temperature: 24.0°C (75°F)
Dewpoint: 19.0°C (66°F) [RH = 74%]
Pressure (altimeter): 30.13 inches Hg (1020.4 mb)
Winds: from the E (100 degrees) at 10 MPH (9 knots; 4.7 m/s)
Visibility: 10 or more miles (16+ km)
Ceiling: at least 12,000 feet AGL
Clouds: sky clear below 12,000 feet AGL
Present Weather: automated observation with no human augmentation;
there may or may not be significant weather present at this time
KBOW 300235Z AUTO 10009KT 10SM CLR 24/19 A3013 RMK AO2 FZRANO

Conditions at: KBOW observed 30 April 2017  02:15 UTC
Temperature: 24.0°C (75°F)
Dewpoint: 18.0°C (64°F) [RH = 69%]
Pressure (altimeter): 30.12 inches Hg (1020.1 mb)
Winds: from the E (100 degrees) at 12 MPH (10 knots; 5.2 m/s)
Visibility: 10 or more miles (16+ km)
Ceiling: at least 12,000 feet AGL
Clouds: sky clear below 12,000 feet AGL
Present Weather: automated observation with no human augmentation;
there may or may not be significant weather present at this time
KBOW 300215Z AUTO 10010KT 10SM CLR 24/18 A3012 RMK AO2 FZRANO

Conditions at: KBOW observed 30 April 2017  01:55 UTC
Temperature: 25.0°C (77°F)
Dewpoint: 18.0°C (64°F) [RH = 65%]
Pressure (altimeter): 30.12 inches Hg (1020.1 mb)
Winds: from the E (100 degrees) at 10 MPH (9 knots; 4.7 m/s)
gusting to 18 MPH (16 knots; 8.3 m/s)
Visibility: 10 or more miles (16+ km)
Ceiling: at least 12,000 feet AGL
Clouds: sky clear below 12,000 feet AGL
Present Weather: automated observation with no human augmentation;
there may or may not be significant weather present at this time
KBOW 300155Z AUTO 10009G16KT 10SM CLR 25/18 A3012 RMK AO2 FZRANO

Conditions at: KBOW observed 30 April 2017  01:35 UTC
Temperature: 25.0°C (77°F)
Dewpoint: 18.0°C (64°F) [RH = 65%]
Pressure (altimeter): 30.11 inches Hg (1019.7 mb)
Winds: from the E (90 degrees) at 13 MPH (11 knots; 5.7 m/s)
gusting to 18 MPH (16 knots; 8.3 m/s)
Visibility: 10 or more miles (16+ km)
Ceiling: at least 12,000 feet AGL
Clouds: sky clear below 12,000 feet AGL
Present Weather: automated observation with no human augmentation;
there may or may not be significant weather present at this time
KBOW 300135Z AUTO 09011G16KT 10SM CLR 25/18 A3011 RMK AO2 FZRANO

Conditions at: KBOW observed 30 April 2017  01:15 UTC
Temperature: 26.0°C (79°F)
Dewpoint: 17.0°C (63°F) [RH = 58%]
Pressure (altimeter): 30.11 inches Hg (1019.7 mb)
Winds: from the E (100 degrees) at 14 MPH (12 knots; 6.2 m/s)
Visibility: 10 or more miles (16+ km)
Ceiling: at least 12,000 feet AGL
Clouds: sky clear below 12,000 feet AGL
Present Weather: automated observation with no human augmentation;
there may or may not be significant weather present at this time
KBOW 300115Z AUTO 10012KT 10SM CLR 26/17 A3011 RMK AO2 FZRANO

Conditions at: KBOW observed 30 April 2017  00:55 UTC
Temperature: 26.0°C (79°F)
Dewpoint: 17.0°C (63°F) [RH = 58%]
Pressure (altimeter): 30.10 inches Hg (1019.4 mb)
Winds: from the E (90 degrees) at 13 MPH (11 knots; 5.7 m/s)
gusting to 18 MPH (16 knots; 8.3 m/s)
Visibility: 10 or more miles (16+ km)
Ceiling: at least 12,000 feet AGL
Clouds: sky clear below 12,000 feet AGL
Present Weather: automated observation with no human augmentation;
there may or may not be significant weather present at this time
KBOW 300055Z AUTO 09011G16KT 10SM CLR 26/17 A3010 RMK AO2 FZRANO

Conditions at: KBOW observed 30 April 2017  00:35 UTC
Temperature: 26.0°C (79°F)
Dewpoint: 17.0°C (63°F) [RH = 58%]
Pressure (altimeter): 30.10 inches Hg (1019.4 mb)
Winds: from the E (90 degrees) at 13 MPH (11 knots; 5.7 m/s)
Visibility: 10 or more miles (16+ km)
Ceiling: at least 12,000 feet AGL
Clouds: sky clear below 12,000 feet AGL
Present Weather: automated observation with no human augmentation;
there may or may not be significant weather present at this time
KBOW 300035Z AUTO 09011KT 10SM CLR 26/17 A3010 RMK AO2 FZRANO

Conditions at: KBOW observed 30 April 2017  00:15 UTC
Temperature: 27.0°C (81°F)
Dewpoint: 17.0°C (63°F) [RH = 54%]
Pressure (altimeter): 30.09 inches Hg (1019.0 mb)
Winds: from the E (90 degrees) at 15 MPH (13 knots; 6.8 m/s)
Visibility: 10 or more miles (16+ km)
Ceiling: at least 12,000 feet AGL
Clouds: sky clear below 12,000 feet AGL
Present Weather: automated observation with no human augmentation;
there may or may not be significant weather present at this time
KBOW 300015Z AUTO 09013KT 10SM CLR 27/17 A3009 RMK AO2 FZRANO

Conditions at: KBOW observed 29 April 2017  23:55 UTC
Temperature: 27.0°C (81°F)
Dewpoint: 18.0°C (64°F) [RH = 58%]
Pressure (altimeter): 30.08 inches Hg (1018.7 mb)
Winds: from the E (80 degrees) at 14 MPH (12 knots; 6.2 m/s)
Visibility: 10 or more miles (16+ km)
Ceiling: at least 12,000 feet AGL
Clouds: sky clear below 12,000 feet AGL
Present Weather: automated observation with no human augmentation;
there may or may not be significant weather present at this time
KBOW 292355Z AUTO 08012KT 10SM CLR 27/18 A3008 RMK AO2 FZRANO

Conditions at: KBOW observed 29 April 2017  23:35 UTC
Temperature: 28.0°C (82°F)
Dewpoint: 18.0°C (64°F) [RH = 55%]
Pressure (altimeter): 30.08 inches Hg (1018.7 mb)
Winds: from the E (90 degrees) at 10 MPH (9 knots; 4.7 m/s)
Visibility: 10 or more miles (16+ km)
Ceiling: at least 12,000 feet AGL
Clouds: sky clear below 12,000 feet AGL
Present Weather: automated observation with no human augmentation;
there may or may not be significant weather present at this time
KBOW 292335Z AUTO 09009KT 10SM CLR 28/18 A3008 RMK AO2 FZRANO

Conditions at: KBOW observed 29 April 2017  23:15 UTC
Temperature: 29.0°C (84°F)
Dewpoint: 18.0°C (64°F) [RH = 52%]
Pressure (altimeter): 30.08 inches Hg (1018.7 mb)
Winds: from the E (90 degrees) at 14 MPH (12 knots; 6.2 m/s)
Visibility: 10 or more miles (16+ km)
Ceiling: at least 12,000 feet AGL
Clouds: sky clear below 12,000 feet AGL
Present Weather: automated observation with no human augmentation;
there may or may not be significant weather present at this time
KBOW 292315Z AUTO 09012KT 10SM CLR 29/18 A3008 RMK AO2 FZRANO

Conditions at: KBOW observed 29 April 2017  22:55 UTC
Temperature: 30.0°C (86°F)
Dewpoint: 17.0°C (63°F) [RH = 46%]
Pressure (altimeter): 30.07 inches Hg (1018.4 mb)
Winds: from the E (90 degrees) at 16 MPH (14 knots; 7.3 m/s)
Visibility: 10 or more miles (16+ km)
Ceiling: at least 12,000 feet AGL
Clouds: sky clear below 12,000 feet AGL
Present Weather: automated observation with no human augmentation;
there may or may not be significant weather present at this time
KBOW 292255Z AUTO 09014KT 10SM CLR 30/17 A3007 RMK AO2 FZRANO

Conditions at: KBOW observed 29 April 2017  22:35 UTC
Temperature: 31.0°C (88°F)
Dewpoint: 17.0°C (63°F) [RH = 43%]
Pressure (altimeter): 30.07 inches Hg (1018.4 mb)
Winds: from the E (80 degrees) at 16 MPH (14 knots; 7.3 m/s)
gusting to 23 MPH (20 knots; 10.4 m/s)
Visibility: 10 or more miles (16+ km)
Ceiling: at least 12,000 feet AGL
Clouds: sky clear below 12,000 feet AGL
Present Weather: automated observation with no human augmentation;
there may or may not be significant weather present at this time
KBOW 292235Z AUTO 08014G20KT 10SM CLR 31/17 A3007 RMK AO2 FZRANO

Conditions at: KBOW observed 29 April 2017  22:15 UTC
Temperature: 31.0°C (88°F)
Dewpoint: 16.0°C (61°F) [RH = 40%]
Pressure (altimeter): 30.07 inches Hg (1018.4 mb)
Winds: from the E (90 degrees) at 20 MPH (17 knots; 8.8 m/s)
Visibility: 9 miles (14 km)
Ceiling: at least 12,000 feet AGL
Clouds: sky clear below 12,000 feet AGL
Present Weather: automated observation with no human augmentation;
there may or may not be significant weather present at this time
KBOW 292215Z AUTO 09017KT 9SM CLR 31/16 A3007 RMK AO2 FZRANO

Conditions at: KBOW observed 29 April 2017  21:55 UTC
Temperature: 32.0°C (90°F)
Dewpoint: 16.0°C (61°F) [RH = 38%]
Pressure (altimeter): 30.07 inches Hg (1018.4 mb)
Winds: from the ESE (110 degrees) at 14 MPH (12 knots; 6.2 m/s)
gusting to 21 MPH (18 knots; 9.4 m/s)
Visibility: 10 or more miles (16+ km)
Ceiling: at least 12,000 feet AGL
Clouds: few clouds at 6500 feet AGL
Present Weather: automated observation with no human augmentation;
there may or may not be significant weather present at this time
KBOW 292155Z AUTO 11012G18KT 10SM FEW065 32/16 A3007 RMK AO2 FZRANO

Conditions at: KBOW observed 29 April 2017  21:35 UTC
Temperature: 33.0°C (91°F)
Dewpoint: 16.0°C (61°F) [RH = 36%]
Pressure (altimeter): 30.07 inches Hg (1018.4 mb)
Winds: from the E (100 degrees) at 20 MPH (17 knots; 8.8 m/s)
Visibility: 10 or more miles (16+ km)
Ceiling: at least 12,000 feet AGL
Clouds: few clouds at 7000 feet AGL
Present Weather: automated observation with no human augmentation;
there may or may not be significant weather present at this time
KBOW 292135Z AUTO 10017KT 10SM FEW070 33/16 A3007 RMK AO2 FZRANO

Conditions at: KBOW observed 29 April 2017  20:50 UTC
Temperature: 33.0°C (91°F)
Dewpoint: 16.0°C (61°F) [RH = 36%]
Pressure (altimeter): 30.06 inches Hg (1018.0 mb)
Winds: from the E (90 degrees) at 14 MPH (12 knots; 6.2 m/s)
Visibility: 10 or more miles (16+ km)
Ceiling: at least 12,000 feet AGL
Clouds: scattered clouds at 7000 feet AGL
Present Weather: no significant weather observed at this time
KBOW 292050Z 09012KT 10SM SCT070 33/16 A3006

Conditions at: KBOW observed 29 April 2017  19:45 UTC
Temperature: 33.0°C (91°F)
Dewpoint: 16.0°C (61°F) [RH = 36%]
Pressure (altimeter): 30.07 inches Hg (1018.4 mb)
Winds: from the ESE (110 degrees) at 14 MPH (12 knots; 6.2 m/s)
Visibility: 10 or more miles (16+ km)
Ceiling: at least 12,000 feet AGL
Clouds: scattered clouds at 7000 feet AGL
scattered clouds at 9000 feet AGL
Present Weather: no significant weather observed at this time
KBOW 291945Z 11012KT 10SM SCT070 SCT090 33/16 A3007

Conditions at: KBOW observed 29 April 2017  18:50 UTC
Temperature: 32.0°C (90°F)
Dewpoint: 16.0°C (61°F) [RH = 38%]
Pressure (altimeter): 30.10 inches Hg (1019.4 mb)
Winds: from the SE (130 degrees) at 15 MPH (13 knots; 6.8 m/s)
Visibility: 10 or more miles (16+ km)
Ceiling: 6500 feet AGL
Clouds: broken clouds at 6500 feet AGL
broken clouds at 8000 feet AGL
broken clouds at 9000 feet AGL
Present Weather: no significant weather observed at this time
KBOW 291850Z 13013KT 10SM BKN065 BKN080 BKN090 32/16 A3010

Conditions at: KBOW observed 29 April 2017  17:50 UTC
Temperature: 33.0°C (91°F)
Dewpoint: 17.0°C (63°F) [RH = 39%]
Pressure (altimeter): 30.11 inches Hg (1019.7 mb)
Winds: from the SE (140 degrees) at 15 MPH (13 knots; 6.8 m/s)
Visibility: 10 or more miles (16+ km)
Ceiling: at least 12,000 feet AGL
Clouds: scattered clouds at 6000 feet AGL
Present Weather: no significant weather observed at this time
KBOW 291750Z 14013KT 10SM SCT060 33/17 A3011

Conditions at: KBOW observed 29 April 2017  16:59 UTC
Temperature: 31.0°C (88°F)
Dewpoint: 17.0°C (63°F) [RH = 43%]
Pressure (altimeter): 30.13 inches Hg (1020.4 mb)
Winds: from the SE (140 degrees) at 14 MPH (12 knots; 6.2 m/s)
gusting to 21 MPH (18 knots; 9.4 m/s)
Visibility: 10 or more miles (16+ km)
Ceiling: at least 12,000 feet AGL
Clouds: scattered clouds at 5500 feet AGL
Present Weather: no significant weather observed at this time
KBOW 291659Z 14012G18KT 10SM SCT055 31/17 A3013

Conditions at: KBOW observed 29 April 2017  15:55 UTC
Temperature: 31.0°C (88°F)
Dewpoint: 18.0°C (64°F) [RH = 46%]
Pressure (altimeter): 30.15 inches Hg (1021.1 mb)
Winds: from the SE (130 degrees) at 15 MPH (13 knots; 6.8 m/s)
Visibility: 10 or more miles (16+ km)
Ceiling: at least 12,000 feet AGL
Clouds: scattered clouds at 4200 feet AGL
Present Weather: no significant weather observed at this time
KBOW 291555Z 13013KT 10SM SCT042 31/18 A3015

Conditions at: KBOW observed 29 April 2017  14:50 UTC
Temperature: 28.0°C (82°F)
Dewpoint: 19.0°C (66°F) [RH = 58%]
Pressure (altimeter): 30.15 inches Hg (1021.1 mb)
Winds: from the SE (140 degrees) at 15 MPH (13 knots; 6.8 m/s)
Visibility: 10 or more miles (16+ km)
Ceiling: at least 12,000 feet AGL
Clouds: scattered clouds at 3400 feet AGL
Present Weather: no significant weather observed at this time
KBOW 291450Z 14013KT 10SM SCT034 28/19 A3015

Conditions at: KBOW observed 29 April 2017  13:45 UTC
Temperature: 26.0°C (79°F)
Dewpoint: 20.0°C (68°F) [RH = 70%]
Pressure (altimeter): 30.16 inches Hg (1021.4 mb)
Winds: from the SE (140 degrees) at 17 MPH (15 knots; 7.8 m/s)
Visibility: 10 or more miles (16+ km)
Ceiling: at least 12,000 feet AGL
Clouds: scattered clouds at 2300 feet AGL
Present Weather: no significant weather observed at this time
KBOW 291345Z 14015KT 10SM SCT023 26/20 A3016

Conditions at: KBOW observed 29 April 2017  12:50 UTC
Temperature: 22.0°C (72°F)
Dewpoint: missing
Pressure (altimeter): 30.15 inches Hg (1021.1 mb)
Winds: from the E (100 degrees) at 6 MPH (5 knots; 2.6 m/s)
Visibility: 7 miles (11 km)
Ceiling: at least 12,000 feet AGL
Clouds: clear skies
Present Weather: no significant weather observed at this time
KBOW 291250Z 10005KT 7SM SKC 22/ A3015

Conditions at: KBOW observed 29 April 2017  11:15 UTC
Temperature: 21.0°C (70°F)
Dewpoint: missing
Pressure (altimeter): 30.14 inches Hg (1020.7 mb)
Winds: from the E (100 degrees) at 5 MPH (4 knots; 2.1 m/s)
Visibility: 6 miles (10 km)
Ceiling: at least 12,000 feet AGL
Clouds: sky clear below 12,000 feet AGL
Present Weather: HZ  (haze)
KBOW 291115Z AUTO 10004KT 6SM HZ CLR 21/ A3014 RMK AO2 FZRANO

Conditions at: KBOW observed 29 April 2017  10:55 UTC
Temperature: 21.0°C (70°F)
Dewpoint: missing
Pressure (altimeter): 30.13 inches Hg (1020.4 mb)
Winds: from the E (100 degrees) at 7 MPH (6 knots; 3.1 m/s)
Visibility: 7 miles (11 km)
Ceiling: at least 12,000 feet AGL
Clouds: sky clear below 12,000 feet AGL
Present Weather: automated observation with no human augmentation;
there may or may not be significant weather present at this time
KBOW 291055Z AUTO 10006KT 7SM CLR 21/ A3013 RMK AO2 FZRANO

Conditions at: KBOW observed 29 April 2017  10:35 UTC
Temperature: 21.0°C (70°F)
Dewpoint: missing
Pressure (altimeter): 30.12 inches Hg (1020.1 mb)
Winds: from the E (100 degrees) at 8 MPH (7 knots; 3.6 m/s)
Visibility: 8 miles (13 km)
Ceiling: at least 12,000 feet AGL
Clouds: few clouds at 900 feet AGL
Present Weather: automated observation with no human augmentation;
there may or may not be significant weather present at this time
KBOW 291035Z AUTO 10007KT 8SM FEW009 21/ A3012 RMK AO2 FZRANO

Conditions at: KBOW observed 29 April 2017  10:15 UTC
Temperature: 21.0°C (70°F)
Dewpoint: missing
Pressure (altimeter): 30.11 inches Hg (1019.7 mb)
Winds: from the E (100 degrees) at 7 MPH (6 knots; 3.1 m/s)
Visibility: 8 miles (13 km)
Ceiling: at least 12,000 feet AGL
Clouds: sky clear below 12,000 feet AGL
Present Weather: automated observation with no human augmentation;
there may or may not be significant weather present at this time
KBOW 291015Z AUTO 10006KT 8SM CLR 21/ A3011 RMK AO2 FZRANO

Conditions at: KBOW observed 29 April 2017  09:55 UTC
Temperature: 21.0°C (70°F)
Dewpoint: missing
Pressure (altimeter): 30.11 inches Hg (1019.7 mb)
Winds: from the E (100 degrees) at 7 MPH (6 knots; 3.1 m/s)
Visibility: 8 miles (13 km)
Ceiling: at least 12,000 feet AGL
Clouds: sky clear below 12,000 feet AGL
Present Weather: automated observation with no human augmentation;
there may or may not be significant weather present at this time
KBOW 290955Z AUTO 10006KT 8SM CLR 21/ A3011 RMK AO2 FZRANO

Conditions at: KBOW observed 29 April 2017  09:35 UTC
Temperature: 21.0°C (70°F)
Dewpoint: missing
Pressure (altimeter): 30.11 inches Hg (1019.7 mb)
Winds: from the E (100 degrees) at 7 MPH (6 knots; 3.1 m/s)
Visibility: 10 or more miles (16+ km)
Ceiling: at least 12,000 feet AGL
Clouds: sky clear below 12,000 feet AGL
Present Weather: automated observation with no human augmentation;
there may or may not be significant weather present at this time
KBOW 290935Z AUTO 10006KT 10SM CLR 21/ A3011 RMK AO2 FZRANO

Conditions at: KBOW observed 29 April 2017  09:15 UTC
Temperature: 21.0°C (70°F)
Dewpoint: missing
Pressure (altimeter): 30.11 inches Hg (1019.7 mb)
Winds: from the E (100 degrees) at 7 MPH (6 knots; 3.1 m/s)
Visibility: 10 or more miles (16+ km)
Ceiling: at least 12,000 feet AGL
Clouds: sky clear below 12,000 feet AGL
Present Weather: automated observation with no human augmentation;
there may or may not be significant weather present at this time
KBOW 290915Z AUTO 10006KT 10SM CLR 21/ A3011 RMK AO2 FZRANO

Conditions at: KBOW observed 29 April 2017  08:55 UTC
Temperature: 22.0°C (72°F)
Dewpoint: missing
Pressure (altimeter): 30.11 inches Hg (1019.7 mb)
Winds: from the E (90 degrees) at 8 MPH (7 knots; 3.6 m/s)
Visibility: 10 or more miles (16+ km)
Ceiling: at least 12,000 feet AGL
Clouds: few clouds at 1500 feet AGL
few clouds at 2100 feet AGL
Present Weather: automated observation with no human augmentation;
there may or may not be significant weather present at this time
KBOW 290855Z AUTO 09007KT 10SM FEW015 FEW021 22/ A3011 RMK AO2 FZRANO

Conditions at: KBOW observed 29 April 2017  08:35 UTC
Temperature: 22.0°C (72°F)
Dewpoint: missing
Pressure (altimeter): 30.11 inches Hg (1019.7 mb)
Winds: from the E (90 degrees) at 7 MPH (6 knots; 3.1 m/s)
Visibility: 10 or more miles (16+ km)
Ceiling: at least 12,000 feet AGL
Clouds: few clouds at 1500 feet AGL
Present Weather: automated observation with no human augmentation;
there may or may not be significant weather present at this time
KBOW 290835Z AUTO 09006KT 10SM FEW015 22/ A3011 RMK AO2 FZRANO

Conditions at: KBOW observed 29 April 2017  08:15 UTC
Temperature: 21.0°C (70°F)
Dewpoint: missing
Pressure (altimeter): 30.11 inches Hg (1019.7 mb)
Winds: from the E (100 degrees) at 6 MPH (5 knots; 2.6 m/s)
Visibility: 10 or more miles (16+ km)
Ceiling: at least 12,000 feet AGL
Clouds: sky clear below 12,000 feet AGL
Present Weather: automated observation with no human augmentation;
there may or may not be significant weather present at this time
KBOW 290815Z AUTO 10005KT 10SM CLR 21/ A3011 RMK AO2 FZRANO

Conditions at: KBOW observed 29 April 2017  07:55 UTC
Temperature: 21.0°C (70°F)
Dewpoint: missing
Pressure (altimeter): 30.11 inches Hg (1019.7 mb)
Winds: from the E (100 degrees) at 5 MPH (4 knots; 2.1 m/s)
Visibility: 10 or more miles (16+ km)
Ceiling: at least 12,000 feet AGL
Clouds: sky clear below 12,000 feet AGL
Present Weather: automated observation with no human augmentation;
there may or may not be significant weather present at this time
KBOW 290755Z AUTO 10004KT 10SM CLR 21/ A3011 RMK AO2 FZRANO

Conditions at: KBOW observed 29 April 2017  07:35 UTC
Temperature: 21.0°C (70°F)
Dewpoint: missing
Pressure (altimeter): 30.11 inches Hg (1019.7 mb)
Winds: from the ESE (120 degrees) at 5 MPH (4 knots; 2.1 m/s)
Visibility: 10 or more miles (16+ km)
Ceiling: at least 12,000 feet AGL
Clouds: sky clear below 12,000 feet AGL
Present Weather: automated observation with no human augmentation;
there may or may not be significant weather present at this time
KBOW 290735Z AUTO 12004KT 10SM CLR 21/ A3011 RMK AO2 FZRANO

Conditions at: KBOW observed 29 April 2017  07:15 UTC
Temperature: 22.0°C (72°F)
Dewpoint: 22.0°C (72°F) [RH = 100%]
Pressure (altimeter): 30.11 inches Hg (1019.7 mb)
Winds: from the ESE (110 degrees) at 7 MPH (6 knots; 3.1 m/s)
Visibility: 10 or more miles (16+ km)
Ceiling: at least 12,000 feet AGL
Clouds: sky clear below 12,000 feet AGL
Present Weather: automated observation with no human augmentation;
there may or may not be significant weather present at this time
KBOW 290715Z AUTO 11006KT 10SM CLR 22/22 A3011 RMK AO2 FZRANO

Conditions at: KBOW observed 29 April 2017  06:55 UTC
Temperature: 22.0°C (72°F)
Dewpoint: 22.0°C (72°F) [RH = 100%]
Pressure (altimeter): 30.11 inches Hg (1019.7 mb)
Winds: from the E (100 degrees) at 6 MPH (5 knots; 2.6 m/s)
Visibility: 10 or more miles (16+ km)
Ceiling: at least 12,000 feet AGL
Clouds: sky clear below 12,000 feet AGL
Present Weather: automated observation with no human augmentation;
there may or may not be significant weather present at this time
KBOW 290655Z AUTO 10005KT 10SM CLR 22/22 A3011 RMK AO2 FZRANO

Conditions at: KBOW observed 29 April 2017  06:35 UTC
Temperature: 22.0°C (72°F)
Dewpoint: 22.0°C (72°F) [RH = 100%]
Pressure (altimeter): 30.12 inches Hg (1020.1 mb)
Winds: from the E (100 degrees) at 6 MPH (5 knots; 2.6 m/s)
Visibility: 10 or more miles (16+ km)
Ceiling: at least 12,000 feet AGL
Clouds: sky clear below 12,000 feet AGL
Present Weather: automated observation with no human augmentation;
there may or may not be significant weather present at this time
KBOW 290635Z AUTO 10005KT 10SM CLR 22/22 A3012 RMK AO2 FZRANO

Conditions at: KBOW observed 29 April 2017  06:15 UTC
Temperature: 22.0°C (72°F)
Dewpoint: 22.0°C (72°F) [RH = 100%]
Pressure (altimeter): 30.12 inches Hg (1020.1 mb)
Winds: from the ESE (110 degrees) at 3 MPH (3 knots; 1.6 m/s)
Visibility: 10 or more miles (16+ km)
Ceiling: at least 12,000 feet AGL
Clouds: sky clear below 12,000 feet AGL
Present Weather: automated observation with no human augmentation;
there may or may not be significant weather present at this time
KBOW 290615Z AUTO 11003KT 10SM CLR 22/22 A3012 RMK AO2 FZRANO

Conditions at: KBOW observed 29 April 2017  05:55 UTC
Temperature: 22.0°C (72°F)
Dewpoint: 22.0°C (72°F) [RH = 100%]
Pressure (altimeter): 30.12 inches Hg (1020.1 mb)
Winds: from the E (100 degrees) at 6 MPH (5 knots; 2.6 m/s)
Visibility: 10 or more miles (16+ km)
Ceiling: at least 12,000 feet AGL
Clouds: sky clear below 12,000 feet AGL
Present Weather: automated observation with no human augmentation;
there may or may not be significant weather present at this time
KBOW 290555Z AUTO 10005KT 10SM CLR 22/22 A3012 RMK AO2 FZRANO

Conditions at: KBOW observed 29 April 2017  05:35 UTC
Temperature: 22.0°C (72°F)
Dewpoint: 22.0°C (72°F) [RH = 100%]
Pressure (altimeter): 30.12 inches Hg (1020.1 mb)
Winds: from the ESE (110 degrees) at 5 MPH (4 knots; 2.1 m/s)
Visibility: 10 or more miles (16+ km)
Ceiling: at least 12,000 feet AGL
Clouds: sky clear below 12,000 feet AGL
Present Weather: automated observation with no human augmentation;
there may or may not be significant weather present at this time
KBOW 290535Z AUTO 11004KT 10SM CLR 22/22 A3012 RMK AO2 FZRANO

Conditions at: KBOW observed 29 April 2017  05:15 UTC
Temperature: 22.0°C (72°F)
Dewpoint: 21.0°C (70°F) [RH = 94%]
Pressure (altimeter): 30.13 inches Hg (1020.4 mb)
Winds: from the E (100 degrees) at 7 MPH (6 knots; 3.1 m/s)
Visibility: 10 or more miles (16+ km)
Ceiling: at least 12,000 feet AGL
Clouds: sky clear below 12,000 feet AGL
Present Weather: automated observation with no human augmentation;
there may or may not be significant weather present at this time
KBOW 290515Z AUTO 10006KT 10SM CLR 22/21 A3013 RMK AO2 FZRANO

Conditions at: KBOW observed 29 April 2017  04:55 UTC
Temperature: 23.0°C (73°F)
Dewpoint: 20.0°C (68°F) [RH = 83%]
Pressure (altimeter): 30.13 inches Hg (1020.4 mb)
Winds: from the ESE (110 degrees) at 6 MPH (5 knots; 2.6 m/s)
Visibility: 10 or more miles (16+ km)
Ceiling: at least 12,000 feet AGL
Clouds: sky clear below 12,000 feet AGL
Present Weather: automated observation with no human augmentation;
there may or may not be significant weather present at this time
KBOW 290455Z AUTO 11005KT 10SM CLR 23/20 A3013 RMK AO2 FZRANO

Conditions at: KBOW observed 29 April 2017  04:35 UTC
Temperature: 23.0°C (73°F)
Dewpoint: 20.0°C (68°F) [RH = 83%]
Pressure (altimeter): 30.12 inches Hg (1020.1 mb)
Winds: from the ESE (110 degrees) at 8 MPH (7 knots; 3.6 m/s)
Visibility: 10 or more miles (16+ km)
Ceiling: at least 12,000 feet AGL
Clouds: sky clear below 12,000 feet AGL
Present Weather: automated observation with no human augmentation;
there may or may not be significant weather present at this time
KBOW 290435Z AUTO 11007KT 10SM CLR 23/20 A3012 RMK AO2 FZRANO

Conditions at: KBOW observed 29 April 2017  04:15 UTC
Temperature: 24.0°C (75°F)
Dewpoint: 20.0°C (68°F) [RH = 78%]
Pressure (altimeter): 30.12 inches Hg (1020.1 mb)
Winds: from the ESE (110 degrees) at 9 MPH (8 knots; 4.2 m/s)
Visibility: 10 or more miles (16+ km)
Ceiling: at least 12,000 feet AGL
Clouds: sky clear below 12,000 feet AGL
Present Weather: automated observation with no human augmentation;
there may or may not be significant weather present at this time
KBOW 290415Z AUTO 11008KT 10SM CLR 24/20 A3012 RMK AO2 FZRANO

Conditions at: KBOW observed 29 April 2017  03:55 UTC
Temperature: 24.0°C (75°F)
Dewpoint: 20.0°C (68°F) [RH = 78%]
Pressure (altimeter): 30.12 inches Hg (1020.1 mb)
Winds: from the ESE (120 degrees) at 10 MPH (9 knots; 4.7 m/s)
Visibility: 10 or more miles (16+ km)
Ceiling: at least 12,000 feet AGL
Clouds: sky clear below 12,000 feet AGL
Present Weather: automated observation with no human augmentation;
there may or may not be significant weather present at this time
KBOW 290355Z AUTO 12009KT 10SM CLR 24/20 A3012 RMK AO2 FZRANO

Conditions at: KBOW observed 29 April 2017  03:35 UTC
Temperature: 24.0°C (75°F)
Dewpoint: 20.0°C (68°F) [RH = 78%]
Pressure (altimeter): 30.12 inches Hg (1020.1 mb)
Winds: from the ESE (110 degrees) at 10 MPH (9 knots; 4.7 m/s)
Visibility: 10 or more miles (16+ km)
Ceiling: at least 12,000 feet AGL
Clouds: sky clear below 12,000 feet AGL
Present Weather: automated observation with no human augmentation;
there may or may not be significant weather present at this time
KBOW 290335Z AUTO 11009KT 10SM CLR 24/20 A3012 RMK AO2 FZRANO

Conditions at: KBOW observed 29 April 2017  03:15 UTC
Temperature: 24.0°C (75°F)
Dewpoint: 20.0°C (68°F) [RH = 78%]
Pressure (altimeter): 30.11 inches Hg (1019.7 mb)
Winds: from the ESE (120 degrees) at 12 MPH (10 knots; 5.2 m/s)
Visibility: 10 or more miles (16+ km)
Ceiling: at least 12,000 feet AGL
Clouds: sky clear below 12,000 feet AGL
Present Weather: automated observation with no human augmentation;
there may or may not be significant weather present at this time
KBOW 290315Z AUTO 12010KT 10SM CLR 24/20 A3011 RMK AO2 FZRANO

Conditions at: KBOW observed 29 April 2017  02:55 UTC
Temperature: 25.0°C (77°F)
Dewpoint: 20.0°C (68°F) [RH = 74%]
Pressure (altimeter): 30.11 inches Hg (1019.7 mb)
Winds: from the ESE (110 degrees) at 10 MPH (9 knots; 4.7 m/s)
Visibility: 10 or more miles (16+ km)
Ceiling: at least 12,000 feet AGL
Clouds: sky clear below 12,000 feet AGL
Present Weather: automated observation with no human augmentation;
there may or may not be significant weather present at this time
KBOW 290255Z AUTO 11009KT 10SM CLR 25/20 A3011 RMK AO2 FZRANO

Conditions at: KBOW observed 29 April 2017  02:35 UTC
Temperature: 25.0°C (77°F)
Dewpoint: 20.0°C (68°F) [RH = 74%]
Pressure (altimeter): 30.11 inches Hg (1019.7 mb)
Winds: from the ESE (110 degrees) at 15 MPH (13 knots; 6.8 m/s)
Visibility: 10 or more miles (16+ km)
Ceiling: at least 12,000 feet AGL
Clouds: sky clear below 12,000 feet AGL
Present Weather: automated observation with no human augmentation;
there may or may not be significant weather present at this time
KBOW 290235Z AUTO 11013KT 10SM CLR 25/20 A3011 RMK AO2 FZRANO

Conditions at: KBOW observed 29 April 2017  02:15 UTC
Temperature: 26.0°C (79°F)
Dewpoint: 20.0°C (68°F) [RH = 70%]
Pressure (altimeter): 30.11 inches Hg (1019.7 mb)
Winds: from the ESE (110 degrees) at 9 MPH (8 knots; 4.2 m/s)
Visibility: 10 or more miles (16+ km)
Ceiling: at least 12,000 feet AGL
Clouds: sky clear below 12,000 feet AGL
Present Weather: automated observation with no human augmentation;
there may or may not be significant weather present at this time
KBOW 290215Z AUTO 11008KT 10SM CLR 26/20 A3011 RMK AO2 FZRANO

Conditions at: KBOW observed 29 April 2017  01:55 UTC
Temperature: 27.0°C (81°F)
Dewpoint: 20.0°C (68°F) [RH = 66%]
Pressure (altimeter): 30.10 inches Hg (1019.4 mb)
Winds: from the SE (130 degrees) at 13 MPH (11 knots; 5.7 m/s)
Visibility: 10 or more miles (16+ km)
Ceiling: at least 12,000 feet AGL
Clouds: sky clear below 12,000 feet AGL
Present Weather: automated observation with no human augmentation;
there may or may not be significant weather present at this time
KBOW 290155Z AUTO 13011KT 10SM CLR 27/20 A3010 RMK AO2 FZRANO

Conditions at: KBOW observed 29 April 2017  01:35 UTC
Temperature: 27.0°C (81°F)
Dewpoint: 20.0°C (68°F) [RH = 66%]
Pressure (altimeter): 30.09 inches Hg (1019.0 mb)
Winds: from the SE (130 degrees) at 13 MPH (11 knots; 5.7 m/s)
Visibility: 10 or more miles (16+ km)
Ceiling: at least 12,000 feet AGL
Clouds: sky clear below 12,000 feet AGL
Present Weather: automated observation with no human augmentation;
there may or may not be significant weather present at this time
KBOW 290135Z AUTO 13011KT 10SM CLR 27/20 A3009 RMK AO2 FZRANO

Conditions at: KBOW observed 29 April 2017  01:15 UTC
Temperature: 28.0°C (82°F)
Dewpoint: 20.0°C (68°F) [RH = 62%]
Pressure (altimeter): 30.08 inches Hg (1018.7 mb)
Winds: from the SE (130 degrees) at 13 MPH (11 knots; 5.7 m/s)
gusting to 18 MPH (16 knots; 8.3 m/s)
Visibility: 10 or more miles (16+ km)
Ceiling: at least 12,000 feet AGL
Clouds: sky clear below 12,000 feet AGL
Present Weather: automated observation with no human augmentation;
there may or may not be significant weather present at this time
KBOW 290115Z AUTO 13011G16KT 10SM CLR 28/20 A3008 RMK AO2 FZRANO

Conditions at: KBOW observed 29 April 2017  00:55 UTC
Temperature: 28.0°C (82°F)
Dewpoint: 19.0°C (66°F) [RH = 58%]
Pressure (altimeter): 30.07 inches Hg (1018.4 mb)
Winds: from the SE (140 degrees) at 13 MPH (11 knots; 5.7 m/s)
gusting to 22 MPH (19 knots; 9.9 m/s)
Visibility: 10 or more miles (16+ km)
Ceiling: at least 12,000 feet AGL
Clouds: sky clear below 12,000 feet AGL
Present Weather: automated observation with no human augmentation;
there may or may not be significant weather present at this time
KBOW 290055Z AUTO 14011G19KT 10SM CLR 28/19 A3007 RMK AO2 FZRANO

Conditions at: KBOW observed 29 April 2017  00:35 UTC
Temperature: 29.0°C (84°F)
Dewpoint: 18.0°C (64°F) [RH = 52%]
Pressure (altimeter): 30.06 inches Hg (1018.0 mb)
Winds: from the SE (130 degrees) at 14 MPH (12 knots; 6.2 m/s)
Visibility: 10 or more miles (16+ km)
Ceiling: at least 12,000 feet AGL
Clouds: sky clear below 12,000 feet AGL
Present Weather: automated observation with no human augmentation;
there may or may not be significant weather present at this time
KBOW 290035Z AUTO 13012KT 10SM CLR 29/18 A3006 RMK AO2 FZRANO

Conditions at: KBOW observed 29 April 2017  00:15 UTC
Temperature: 29.0°C (84°F)
Dewpoint: 16.0°C (61°F) [RH = 45%]
Pressure (altimeter): 30.05 inches Hg (1017.7 mb)
Winds: from the ESE (120 degrees) at 12 MPH (10 knots; 5.2 m/s)
Visibility: 10 or more miles (16+ km)
Ceiling: at least 12,000 feet AGL
Clouds: sky clear below 12,000 feet AGL
Present Weather: automated observation with no human augmentation;
there may or may not be significant weather present at this time
KBOW 290015Z AUTO 12010KT 10SM CLR 29/16 A3005 RMK AO2 FZRANO

Conditions at: KBOW observed 28 April 2017  23:55 UTC
Temperature: 30.0°C (86°F)
Dewpoint: 16.0°C (61°F) [RH = 43%]
Pressure (altimeter): 30.05 inches Hg (1017.7 mb)
Winds: from the SE (130 degrees) at 10 MPH (9 knots; 4.7 m/s)
Visibility: 10 or more miles (16+ km)
Ceiling: at least 12,000 feet AGL
Clouds: sky clear below 12,000 feet AGL
Present Weather: automated observation with no human augmentation;
there may or may not be significant weather present at this time
KBOW 282355Z AUTO 13009KT 10SM CLR 30/16 A3005 RMK AO2 FZRANO

Conditions at: KBOW observed 28 April 2017  23:35 UTC
Temperature: 30.0°C (86°F)
Dewpoint: 17.0°C (63°F) [RH = 46%]
Pressure (altimeter): 30.05 inches Hg (1017.7 mb)
Winds: from the SE (140 degrees) at 12 MPH (10 knots; 5.2 m/s)
Visibility: 10 or more miles (16+ km)
Ceiling: at least 12,000 feet AGL
Clouds: sky clear below 12,000 feet AGL
Present Weather: automated observation with no human augmentation;
there may or may not be significant weather present at this time
KBOW 282335Z AUTO 14010KT 10SM CLR 30/17 A3005 RMK AO2 FZRANO

Conditions at: KBOW observed 28 April 2017  23:15 UTC
Temperature: 31.0°C (88°F)
Dewpoint: 16.0°C (61°F) [RH = 40%]
Pressure (altimeter): 30.04 inches Hg (1017.4 mb)
Winds: from the ESE (120 degrees) at 14 MPH (12 knots; 6.2 m/s)
Visibility: 10 or more miles (16+ km)
Ceiling: at least 12,000 feet AGL
Clouds: few clouds at 8500 feet AGL
Present Weather: automated observation with no human augmentation;
there may or may not be significant weather present at this time
KBOW 282315Z AUTO 12012KT 10SM FEW085 31/16 A3004 RMK AO2 FZRANO

Conditions at: KBOW observed 28 April 2017  22:55 UTC
Temperature: 32.0°C (90°F)
Dewpoint: 17.0°C (63°F) [RH = 41%]
Pressure (altimeter): 30.03 inches Hg (1017.0 mb)
Winds: from the SE (130 degrees) at 14 MPH (12 knots; 6.2 m/s)
Visibility: 10 or more miles (16+ km)
Ceiling: at least 12,000 feet AGL
Clouds: sky clear below 12,000 feet AGL
Present Weather: automated observation with no human augmentation;
there may or may not be significant weather present at this time
KBOW 282255Z AUTO 13012KT 10SM CLR 32/17 A3003 RMK AO2 FZRANO

Conditions at: KBOW observed 28 April 2017  22:35 UTC
Temperature: 32.0°C (90°F)
Dewpoint: 16.0°C (61°F) [RH = 38%]
Pressure (altimeter): 30.03 inches Hg (1017.0 mb)
Winds: from the ESE (120 degrees) at 16 MPH (14 knots; 7.3 m/s)
Visibility: 10 or more miles (16+ km)
Ceiling: at least 12,000 feet AGL
Clouds: scattered clouds at 8500 feet AGL
Present Weather: automated observation with no human augmentation;
there may or may not be significant weather present at this time
KBOW 282235Z AUTO 12014KT 10SM SCT085 32/16 A3003 RMK AO2 FZRANO

Conditions at: KBOW observed 28 April 2017  22:15 UTC
Temperature: 32.0°C (90°F)
Dewpoint: 16.0°C (61°F) [RH = 38%]
Pressure (altimeter): 30.02 inches Hg (1016.7 mb)
Winds: from the ESE (110 degrees) at 13 MPH (11 knots; 5.7 m/s)
Visibility: 10 or more miles (16+ km)
Ceiling: 9000 feet AGL
Clouds: few clouds at 7500 feet AGL
broken clouds at 9000 feet AGL
Present Weather: automated observation with no human augmentation;
there may or may not be significant weather present at this time
KBOW 282215Z AUTO 11011KT 10SM FEW075 BKN090 32/16 A3002 RMK AO2 FZRANO

Conditions at: KBOW observed 28 April 2017  21:55 UTC
Temperature: 34.0°C (93°F)
Dewpoint: 16.0°C (61°F) [RH = 34%]
Pressure (altimeter): 30.02 inches Hg (1016.7 mb)
Winds: from the E (100 degrees) at 15 MPH (13 knots; 6.8 m/s)
Visibility: 10 or more miles (16+ km)
Ceiling: at least 12,000 feet AGL
Clouds: scattered clouds at 7500 feet AGL
Present Weather: automated observation with no human augmentation;
there may or may not be significant weather present at this time
KBOW 282155Z AUTO 10013KT 10SM SCT075 34/16 A3002 RMK AO2 FZRANO

Conditions at: KBOW observed 28 April 2017  21:35 UTC
Temperature: 34.0°C (93°F)
Dewpoint: 16.0°C (61°F) [RH = 34%]
Pressure (altimeter): 30.02 inches Hg (1016.7 mb)
Winds: from the SE (140 degrees) at 8 MPH (7 knots; 3.6 m/s)
gusting to 17 MPH (15 knots; 7.8 m/s)
Visibility: 10 or more miles (16+ km)
Ceiling: at least 12,000 feet AGL
Clouds: scattered clouds at 7500 feet AGL
scattered clouds at 9500 feet AGL
Present Weather: automated observation with no human augmentation;
there may or may not be significant weather present at this time
KBOW 282135Z AUTO 14007G15KT 10SM SCT075 SCT095 34/16 A3002 RMK AO2 FZRANO

Conditions at: KBOW observed 28 April 2017  20:45 UTC
Temperature: 34.0°C (93°F)
Dewpoint: 15.0°C (59°F) [RH = 32%]
Pressure (altimeter): 30.02 inches Hg (1016.7 mb)
Winds: from the ESE (120 degrees) at 9 MPH (8 knots; 4.2 m/s)
Visibility: 10 or more miles (16+ km)
Ceiling: at least 12,000 feet AGL
Clouds: scattered clouds at 8000 feet AGL
Present Weather: no significant weather observed at this time
KBOW 282045Z 12008KT 10SM SCT080 34/15 A3002

Conditions at: KBOW observed 28 April 2017  19:45 UTC
Temperature: 34.0°C (93°F)
Dewpoint: 16.0°C (61°F) [RH = 34%]
Pressure (altimeter): 30.03 inches Hg (1017.0 mb)
Winds: from the ESE (110 degrees) at 12 MPH (10 knots; 5.2 m/s)
Visibility: 10 or more miles (16+ km)
Ceiling: at least 12,000 feet AGL
Clouds: scattered clouds at 7000 feet AGL
scattered clouds at 8500 feet AGL
Present Weather: no significant weather observed at this time
KBOW 281945Z 11010KT 10SM SCT070 SCT085 34/16 A3003

Conditions at: KBOW observed 28 April 2017  18:50 UTC
Temperature: 34.0°C (93°F)
Dewpoint: 18.0°C (64°F) [RH = 39%]
Pressure (altimeter): 30.05 inches Hg (1017.7 mb)
Winds: from the SE (140 degrees) at 13 MPH (11 knots; 5.7 m/s)
Visibility: 10 or more miles (16+ km)
Ceiling: at least 12,000 feet AGL
Clouds: scattered clouds at 6000 feet AGL
Present Weather: no significant weather observed at this time
KBOW 281850Z 14011KT 10SM SCT060 34/18 A3005

Conditions at: KBOW observed 28 April 2017  17:45 UTC
Temperature: 33.0°C (91°F)
Dewpoint: 18.0°C (64°F) [RH = 41%]
Pressure (altimeter): 30.06 inches Hg (1018.0 mb)
Winds: from the ESE (110 degrees) at 13 MPH (11 knots; 5.7 m/s)
Visibility: 10 or more miles (16+ km)
Ceiling: at least 12,000 feet AGL
Clouds: scattered clouds at 4500 feet AGL
Present Weather: no significant weather observed at this time
KBOW 281745Z 11011KT 10SM SCT045 33/18 A3006

Conditions at: KBOW observed 28 April 2017  16:50 UTC
Temperature: 32.0°C (90°F)
Dewpoint: 20.0°C (68°F) [RH = 49%]
Pressure (altimeter): 30.08 inches Hg (1018.7 mb)
Winds: from the SE (130 degrees) at 13 MPH (11 knots; 5.7 m/s)
Visibility: 10 or more miles (16+ km)
Ceiling: 3500 feet AGL
Clouds: broken clouds at 3500 feet AGL
Present Weather: no significant weather observed at this time
KBOW 281650Z 13011KT 10SM BKN035 32/20 A3008

Conditions at: KBOW observed 28 April 2017  15:50 UTC
Temperature: 31.0°C (88°F)
Dewpoint: 21.0°C (70°F) [RH = 55%]
Pressure (altimeter): 30.09 inches Hg (1019.0 mb)
Winds: from the SE (140 degrees) at 10 MPH (9 knots; 4.7 m/s)
Visibility: 10 or more miles (16+ km)
Ceiling: at least 12,000 feet AGL
Clouds: scattered clouds at 3500 feet AGL
scattered clouds at 4300 feet AGL
Present Weather: no significant weather observed at this time
KBOW 281550Z 14009KT 10SM SCT035 SCT043 31/21 A3009